sensor_id;sensor_type;location;lat;lon;timestamp;P1;durP1;ratioP1;P2;durP2;ratioP2
37309;SDS011;23195;47.744;7.358;2024-01-30T08:06:04;19.03;;;11.20;;
37309;SDS011;23195;47.744;7.358;2024-01-30T08:08:34;19.13;;;11.30;;
37309;SDS011;23195;47.744;7.358;2024-01-30T08:10:59;17.13;;;11.07;;
37309;SDS011;23195;47.744;7.358;2024-01-30T08:13:28;16.93;;;11.07;;
37309;SDS011;23195;47.744;7.358;2024-01-30T08:15:54;21.47;;;13.50;;
37309;SDS011;23195;47.744;7.358;2024-01-30T08:18:20;23.30;;;13.60;;
37309;SDS011;23195;47.744;7.358;2024-01-30T08:20:46;22.33;;;13.73;;
37309;SDS011;23195;47.744;7.358;2024-01-30T08:23:14;23.77;;;13.20;;
37309;SDS011;23195;47.744;7.358;2024-01-30T08:25:40;18.87;;;11.47;;
37309;SDS011;23195;47.744;7.358;2024-01-30T08:28:06;19.07;;;11.43;;
37309;SDS011;23195;47.744;7.358;2024-01-30T08:30:34;19.63;;;11.60;;
37309;SDS011;23195;47.744;7.358;2024-01-30T08:33:00;21.00;;;11.17;;
37309;SDS011;23195;47.744;7.358;2024-01-30T08:35:26;17.30;;;11.00;;
37309;SDS011;23195;47.744;7.358;2024-01-30T08:37:55;21.43;;;11.80;;
37309;SDS011;23195;47.744;7.358;2024-01-30T08:40:21;21.40;;;12.13;;
37309;SDS011;23195;47.744;7.358;2024-01-30T08:42:46;16.43;;;10.70;;
37309;SDS011;23195;47.744;7.358;2024-01-30T08:45:12;22.00;;;11.70;;
37309;SDS011;23195;47.744;7.358;2024-01-30T08:47:39;20.07;;;11.50;;
37309;SDS011;23195;47.744;7.358;2024-01-30T08:50:05;17.83;;;12.03;;
37309;SDS011;23195;47.744;7.358;2024-01-30T08:52:32;17.87;;;10.80;;
37309;SDS011;23195;47.744;7.358;2024-01-30T08:54:59;16.47;;;10.80;;
37309;SDS011;23195;47.744;7.358;2024-01-30T08:57:25;15.63;;;10.90;;
37309;SDS011;23195;47.744;7.358;2024-01-30T08:59:53;16.07;;;10.83;;
37309;SDS011;23195;47.744;7.358;2024-01-30T09:02:20;17.57;;;11.13;;
37309;SDS011;23195;47.744;7.358;2024-01-30T09:04:46;17.93;;;11.13;;
37309;SDS011;23195;47.744;7.358;2024-01-30T09:07:12;15.47;;;10.33;;
37309;SDS011;23195;47.744;7.358;2024-01-30T09:09:41;16.00;;;9.87;;
37309;SDS011;23195;47.744;7.358;2024-01-30T09:12:07;17.47;;;9.73;;
37309;SDS011;23195;47.744;7.358;2024-01-30T09:14:35;16.27;;;10.07;;
37309;SDS011;23195;47.744;7.358;2024-01-30T09:17:01;12.80;;;8.87;;
37309;SDS011;23195;47.744;7.358;2024-01-30T09:19:28;13.77;;;8.70;;
37309;SDS011;23195;47.744;7.358;2024-01-30T09:21:54;13.23;;;8.07;;
37309;SDS011;23195;47.744;7.358;2024-01-30T09:24:19;12.53;;;7.83;;
37309;SDS011;23195;47.744;7.358;2024-01-30T09:26:45;13.87;;;8.00;;
37309;SDS011;23195;47.744;7.358;2024-01-30T09:29:11;13.30;;;8.43;;
37309;SDS011;23195;47.744;7.358;2024-01-30T09:31:37;12.47;;;8.33;;
37309;SDS011;23195;47.744;7.358;2024-01-30T09:34:03;13.20;;;8.13;;
37309;SDS011;23195;47.744;7.358;2024-01-30T09:36:29;13.83;;;7.30;;
37309;SDS011;23195;47.744;7.358;2024-01-30T09:38:54;11.53;;;7.80;;
37309;SDS011;23195;47.744;7.358;2024-01-30T09:41:20;12.23;;;7.83;;
37309;SDS011;23195;47.744;7.358;2024-01-30T09:43:50;14.13;;;7.73;;
37309;SDS011;23195;47.744;7.358;2024-01-30T09:46:16;12.80;;;8.00;;
37309;SDS011;23195;47.744;7.358;2024-01-30T09:48:46;10.90;;;7.83;;
37309;SDS011;23195;47.744;7.358;2024-01-30T09:51:14;12.50;;;7.73;;
37309;SDS011;23195;47.744;7.358;2024-01-30T09:53:44;13.80;;;8.10;;
37309;SDS011;23195;47.744;7.358;2024-01-30T09:56:10;12.33;;;7.93;;
37309;SDS011;23195;47.744;7.358;2024-01-30T09:58:38;11.80;;;7.53;;
37309;SDS011;23195;47.744;7.358;2024-01-30T10:01:05;11.23;;;7.63;;
37309;SDS011;23195;47.744;7.358;2024-01-30T10:03:31;10.60;;;6.63;;
37309;SDS011;23195;47.744;7.358;2024-01-30T10:05:57;11.77;;;6.90;;
37309;SDS011;23195;47.744;7.358;2024-01-30T10:08:26;10.07;;;6.80;;
37309;SDS011;23195;47.744;7.358;2024-01-30T10:10:55;12.20;;;7.60;;
37309;SDS011;23195;47.744;7.358;2024-01-30T10:13:23;12.97;;;8.20;;
37309;SDS011;23195;47.744;7.358;2024-01-30T10:15:49;12.70;;;7.30;;
37309;SDS011;23195;47.744;7.358;2024-01-30T10:18:15;9.80;;;7.40;;
37309;SDS011;23195;47.744;7.358;2024-01-30T10:20:41;12.00;;;7.57;;
37309;SDS011;23195;47.744;7.358;2024-01-30T10:23:07;12.57;;;7.50;;
37309;SDS011;23195;47.744;7.358;2024-01-30T10:25:33;9.97;;;7.13;;
37309;SDS011;23195;47.744;7.358;2024-01-30T10:27:59;11.87;;;7.13;;
37309;SDS011;23195;47.744;7.358;2024-01-30T10:30:25;12.87;;;7.07;;
37309;SDS011;23195;47.744;7.358;2024-01-30T10:32:52;11.83;;;6.67;;
37309;SDS011;23195;47.744;7.358;2024-01-30T10:35:17;9.63;;;6.10;;
37309;SDS011;23195;47.744;7.358;2024-01-30T10:37:44;9.90;;;5.13;;
37309;SDS011;23195;47.744;7.358;2024-01-30T10:40:12;9.23;;;4.67;;
37309;SDS011;23195;47.744;7.358;2024-01-30T10:42:42;8.93;;;5.53;;
37309;SDS011;23195;47.744;7.358;2024-01-30T10:45:11;7.80;;;5.60;;
37309;SDS011;23195;47.744;7.358;2024-01-30T10:47:43;7.00;;;5.50;;
37309;SDS011;23195;47.744;7.358;2024-01-30T10:50:14;9.77;;;5.63;;
37309;SDS011;23195;47.744;7.358;2024-01-30T10:52:42;8.23;;;5.80;;
37309;SDS011;23195;47.744;7.358;2024-01-30T10:55:08;8.63;;;5.57;;
37309;SDS011;23195;47.744;7.358;2024-01-30T10:57:35;8.40;;;6.07;;
37309;SDS011;23195;47.744;7.358;2024-01-30T11:00:02;8.43;;;5.93;;
37309;SDS011;23195;47.744;7.358;2024-01-30T11:02:35;8.93;;;6.17;;
37309;SDS011;23195;47.744;7.358;2024-01-30T11:05:06;8.20;;;5.70;;
37309;SDS011;23195;47.744;7.358;2024-01-30T11:07:33;8.80;;;6.17;;
37309;SDS011;23195;47.744;7.358;2024-01-30T11:12:31;10.40;;;6.53;;
37309;SDS011;23195;47.744;7.358;2024-01-30T11:15:02;13.03;;;7.17;;
37309;SDS011;23195;47.744;7.358;2024-01-30T11:20:15;10.57;;;7.00;;
37309;SDS011;23195;47.744;7.358;2024-01-30T11:22:47;10.57;;;6.57;;
37309;SDS011;23195;47.744;7.358;2024-01-30T11:25:14;9.23;;;6.27;;
37309;SDS011;23195;47.744;7.358;2024-01-30T11:27:45;9.07;;;5.87;;
37309;SDS011;23195;47.744;7.358;2024-01-30T11:30:21;9.70;;;5.73;;
37309;SDS011;23195;47.744;7.358;2024-01-30T11:33:04;11.10;;;6.40;;
37309;SDS011;23195;47.744;7.358;2024-01-30T11:38:07;9.80;;;6.00;;
37309;SDS011;23195;47.744;7.358;2024-01-30T11:40:35;9.70;;;5.97;;
37309;SDS011;23195;47.744;7.358;2024-01-30T11:43:03;7.07;;;6.03;;
37309;SDS011;23195;47.744;7.358;2024-01-30T11:45:30;8.00;;;6.03;;
37309;SDS011;23195;47.744;7.358;2024-01-30T11:47:56;9.93;;;5.93;;
37309;SDS011;23195;47.744;7.358;2024-01-30T11:50:25;9.10;;;6.27;;
37309;SDS011;23195;47.744;7.358;2024-01-30T11:52:51;10.23;;;6.53;;
37309;SDS011;23195;47.744;7.358;2024-01-30T11:55:17;9.83;;;6.37;;
37309;SDS011;23195;47.744;7.358;2024-01-30T11:57:43;10.03;;;6.43;;
37309;SDS011;23195;47.744;7.358;2024-01-30T12:00:16;9.67;;;6.53;;
37309;SDS011;23195;47.744;7.358;2024-01-30T12:02:43;10.33;;;5.90;;
37309;SDS011;23195;47.744;7.358;2024-01-30T12:05:14;9.63;;;6.10;;
37309;SDS011;23195;47.744;7.358;2024-01-30T12:07:40;8.47;;;5.83;;
37309;SDS011;23195;47.744;7.358;2024-01-30T12:10:09;10.10;;;6.03;;
37309;SDS011;23195;47.744;7.358;2024-01-30T12:12:34;8.67;;;5.90;;
37309;SDS011;23195;47.744;7.358;2024-01-30T12:15:00;9.13;;;6.07;;
37309;SDS011;23195;47.744;7.358;2024-01-30T12:17:33;8.30;;;5.90;;
37309;SDS011;23195;47.744;7.358;2024-01-30T12:20:03;13.33;;;6.10;;
37309;SDS011;23195;47.744;7.358;2024-01-30T12:22:36;7.63;;;5.90;;
37309;SDS011;23195;47.744;7.358;2024-01-30T12:25:09;8.43;;;5.77;;
37309;SDS011;23195;47.744;7.358;2024-01-30T12:27:36;8.43;;;6.00;;
37309;SDS011;23195;47.744;7.358;2024-01-30T12:30:08;7.07;;;5.57;;
37309;SDS011;23195;47.744;7.358;2024-01-30T12:32:36;8.37;;;5.63;;
37309;SDS011;23195;47.744;7.358;2024-01-30T12:35:02;7.47;;;5.53;;
37309;SDS011;23195;47.744;7.358;2024-01-30T12:37:29;9.70;;;5.73;;
37309;SDS011;23195;47.744;7.358;2024-01-30T12:39:55;7.57;;;5.60;;
37309;SDS011;23195;47.744;7.358;2024-01-30T12:42:24;8.97;;;5.80;;
37309;SDS011;23195;47.744;7.358;2024-01-30T12:44:52;6.70;;;5.30;;
37309;SDS011;23195;47.744;7.358;2024-01-30T12:47:18;7.30;;;5.63;;
37309;SDS011;23195;47.744;7.358;2024-01-30T12:49:46;8.90;;;5.47;;
37309;SDS011;23195;47.744;7.358;2024-01-30T12:52:14;8.43;;;5.63;;
37309;SDS011;23195;47.744;7.358;2024-01-30T12:54:43;7.17;;;5.30;;
37309;SDS011;23195;47.744;7.358;2024-01-30T12:57:08;9.57;;;5.67;;
37309;SDS011;23195;47.744;7.358;2024-01-30T12:59:34;10.30;;;5.73;;
37309;SDS011;23195;47.744;7.358;2024-01-30T13:02:00;7.23;;;5.20;;
37309;SDS011;23195;47.744;7.358;2024-01-30T13:04:28;10.33;;;4.80;;
37309;SDS011;23195;47.744;7.358;2024-01-30T13:06:54;8.73;;;4.60;;
37309;SDS011;23195;47.744;7.358;2024-01-30T13:09:20;6.07;;;4.73;;
37309;SDS011;23195;47.744;7.358;2024-01-30T13:11:46;8.40;;;4.60;;
37309;SDS011;23195;47.744;7.358;2024-01-30T13:14:12;6.70;;;4.40;;
37309;SDS011;23195;47.744;7.358;2024-01-30T13:16:38;7.30;;;4.37;;
37309;SDS011;23195;47.744;7.358;2024-01-30T13:19:03;7.53;;;4.80;;
37309;SDS011;23195;47.744;7.358;2024-01-30T13:21:29;5.33;;;4.50;;
37309;SDS011;23195;47.744;7.358;2024-01-30T13:23:55;7.63;;;4.67;;
37309;SDS011;23195;47.744;7.358;2024-01-30T13:26:21;9.20;;;4.60;;
37309;SDS011;23195;47.744;7.358;2024-01-30T13:28:47;6.37;;;4.43;;
37309;SDS011;23195;47.744;7.358;2024-01-30T13:31:16;6.70;;;4.57;;
37309;SDS011;23195;47.744;7.358;2024-01-30T13:33:42;7.77;;;4.47;;
37309;SDS011;23195;47.744;7.358;2024-01-30T13:36:10;9.37;;;4.53;;
37309;SDS011;23195;47.744;7.358;2024-01-30T13:38:36;9.20;;;4.97;;
37309;SDS011;23195;47.744;7.358;2024-01-30T13:41:02;6.37;;;4.60;;
37309;SDS011;23195;47.744;7.358;2024-01-30T13:43:28;5.57;;;4.33;;
37309;SDS011;23195;47.744;7.358;2024-01-30T13:45:54;8.03;;;4.30;;
37309;SDS011;23195;47.744;7.358;2024-01-30T13:48:28;6.93;;;4.47;;
37309;SDS011;23195;47.744;7.358;2024-01-30T13:50:54;6.93;;;4.50;;
37309;SDS011;23195;47.744;7.358;2024-01-30T13:53:21;6.90;;;4.60;;
37309;SDS011;23195;47.744;7.358;2024-01-30T13:55:46;8.30;;;4.50;;
37309;SDS011;23195;47.744;7.358;2024-01-30T13:58:12;7.67;;;4.93;;
37309;SDS011;23195;47.744;7.358;2024-01-30T14:00:41;12.33;;;4.73;;
37309;SDS011;23195;47.744;7.358;2024-01-30T14:03:07;5.73;;;4.50;;
37309;SDS011;23195;47.744;7.358;2024-01-30T14:05:32;6.90;;;5.13;;
37309;SDS011;23195;47.744;7.358;2024-01-30T14:07:58;8.57;;;4.73;;
37309;SDS011;23195;47.744;7.358;2024-01-30T14:10:28;6.70;;;4.77;;
37309;SDS011;23195;47.744;7.358;2024-01-30T14:12:54;7.23;;;4.80;;
37309;SDS011;23195;47.744;7.358;2024-01-30T14:15:19;7.13;;;4.90;;
37309;SDS011;23195;47.744;7.358;2024-01-30T14:17:46;7.30;;;4.83;;
37309;SDS011;23195;47.744;7.358;2024-01-30T14:20:13;5.83;;;4.53;;
37309;SDS011;23195;47.744;7.358;2024-01-30T14:22:41;8.53;;;4.83;;
37309;SDS011;23195;47.744;7.358;2024-01-30T14:25:08;7.90;;;4.60;;
37309;SDS011;23195;47.744;7.358;2024-01-30T14:27:34;7.17;;;4.33;;
37309;SDS011;23195;47.744;7.358;2024-01-30T14:30:00;8.97;;;4.90;;
37309;SDS011;23195;47.744;7.358;2024-01-30T14:32:28;16.97;;;5.53;;
37309;SDS011;23195;47.744;7.358;2024-01-30T14:34:54;8.27;;;5.00;;
37309;SDS011;23195;47.744;7.358;2024-01-30T14:37:22;9.83;;;4.93;;
37309;SDS011;23195;47.744;7.358;2024-01-30T14:39:49;7.60;;;5.00;;
37309;SDS011;23195;47.744;7.358;2024-01-30T14:42:15;8.70;;;5.10;;
37309;SDS011;23195;47.744;7.358;2024-01-30T14:44:41;8.77;;;4.90;;
37309;SDS011;23195;47.744;7.358;2024-01-30T14:47:07;6.83;;;4.60;;
37309;SDS011;23195;47.744;7.358;2024-01-30T14:49:33;5.90;;;4.57;;
37309;SDS011;23195;47.744;7.358;2024-01-30T14:51:59;8.03;;;4.50;;
37309;SDS011;23195;47.744;7.358;2024-01-30T14:54:25;9.93;;;5.93;;
37309;SDS011;23195;47.744;7.358;2024-01-30T14:56:52;18.20;;;9.50;;
37309;SDS011;23195;47.744;7.358;2024-01-30T14:59:18;14.23;;;7.87;;
37309;SDS011;23195;47.744;7.358;2024-01-30T15:01:44;16.70;;;6.83;;
37309;SDS011;23195;47.744;7.358;2024-01-30T15:04:13;12.63;;;6.20;;
37309;SDS011;23195;47.744;7.358;2024-01-30T15:06:38;12.83;;;7.27;;
37309;SDS011;23195;47.744;7.358;2024-01-30T15:09:10;20.67;;;9.60;;
37309;SDS011;23195;47.744;7.358;2024-01-30T15:11:39;25.67;;;12.23;;
37309;SDS011;23195;47.744;7.358;2024-01-30T15:14:09;28.93;;;12.10;;
37309;SDS011;23195;47.744;7.358;2024-01-30T15:16:35;35.53;;;14.43;;
37309;SDS011;23195;47.744;7.358;2024-01-30T15:19:01;30.83;;;14.00;;
37309;SDS011;23195;47.744;7.358;2024-01-30T15:21:30;23.63;;;12.63;;
37309;SDS011;23195;47.744;7.358;2024-01-30T15:23:56;20.93;;;11.67;;
37309;SDS011;23195;47.744;7.358;2024-01-30T15:26:22;18.97;;;8.90;;
37309;SDS011;23195;47.744;7.358;2024-01-30T15:28:50;18.47;;;8.57;;
37309;SDS011;23195;47.744;7.358;2024-01-30T15:31:16;13.63;;;7.63;;
37309;SDS011;23195;47.744;7.358;2024-01-30T15:33:42;12.67;;;6.77;;
37309;SDS011;23195;47.744;7.358;2024-01-30T15:36:08;13.10;;;8.10;;
37309;SDS011;23195;47.744;7.358;2024-01-30T15:38:35;12.93;;;7.90;;
37309;SDS011;23195;47.744;7.358;2024-01-30T15:41:04;17.80;;;8.73;;
37309;SDS011;23195;47.744;7.358;2024-01-30T15:43:30;13.53;;;7.33;;
37309;SDS011;23195;47.744;7.358;2024-01-30T15:46:01;17.20;;;8.30;;
37309;SDS011;23195;47.744;7.358;2024-01-30T15:48:27;18.87;;;7.90;;
37309;SDS011;23195;47.744;7.358;2024-01-30T15:50:52;14.40;;;6.83;;
37309;SDS011;23195;47.744;7.358;2024-01-30T15:53:21;10.53;;;6.53;;
37309;SDS011;23195;47.744;7.358;2024-01-30T15:55:48;14.57;;;7.50;;
37309;SDS011;23195;47.744;7.358;2024-01-30T15:58:14;7.37;;;5.53;;
37309;SDS011;23195;47.744;7.358;2024-01-30T16:00:42;8.20;;;5.50;;
37309;SDS011;23195;47.744;7.358;2024-01-30T16:03:08;9.07;;;5.63;;
37309;SDS011;23195;47.744;7.358;2024-01-30T16:05:34;7.73;;;4.97;;
37309;SDS011;23195;47.744;7.358;2024-01-30T16:08:02;9.50;;;5.57;;
37309;SDS011;23195;47.744;7.358;2024-01-30T16:10:28;8.80;;;5.10;;
37309;SDS011;23195;47.744;7.358;2024-01-30T16:12:53;9.93;;;4.97;;
37309;SDS011;23195;47.744;7.358;2024-01-30T16:15:19;7.97;;;5.20;;
37309;SDS011;23195;47.744;7.358;2024-01-30T16:17:45;8.10;;;5.97;;
37309;SDS011;23195;47.744;7.358;2024-01-30T16:20:11;10.07;;;6.00;;
37309;SDS011;23195;47.744;7.358;2024-01-30T16:22:39;7.23;;;5.20;;
37309;SDS011;23195;47.744;7.358;2024-01-30T16:25:05;8.67;;;5.50;;
37309;SDS011;23195;47.744;7.358;2024-01-30T16:27:31;10.43;;;6.07;;
37309;SDS011;23195;47.744;7.358;2024-01-30T16:29:57;11.63;;;7.00;;
37309;SDS011;23195;47.744;7.358;2024-01-30T16:32:23;13.77;;;6.50;;
37309;SDS011;23195;47.744;7.358;2024-01-30T16:34:49;11.70;;;7.10;;
37309;SDS011;23195;47.744;7.358;2024-01-30T16:37:15;13.80;;;6.37;;
37309;SDS011;23195;47.744;7.358;2024-01-30T16:39:41;9.63;;;6.20;;
37309;SDS011;23195;47.744;7.358;2024-01-30T16:42:08;9.60;;;6.00;;
37309;SDS011;23195;47.744;7.358;2024-01-30T16:44:36;8.60;;;5.87;;
37309;SDS011;23195;47.744;7.358;2024-01-30T16:47:02;11.30;;;6.20;;
37309;SDS011;23195;47.744;7.358;2024-01-30T16:49:28;9.63;;;6.13;;
37309;SDS011;23195;47.744;7.358;2024-01-30T16:51:53;9.93;;;6.10;;
37309;SDS011;23195;47.744;7.358;2024-01-30T16:54:19;9.43;;;6.40;;
37309;SDS011;23195;47.744;7.358;2024-01-30T16:56:47;9.27;;;5.67;;
37309;SDS011;23195;47.744;7.358;2024-01-30T16:59:14;9.73;;;5.77;;
37309;SDS011;23195;47.744;7.358;2024-01-30T17:01:40;8.87;;;5.67;;
37309;SDS011;23195;47.744;7.358;2024-01-30T17:04:09;9.20;;;5.70;;
37309;SDS011;23195;47.744;7.358;2024-01-30T17:06:39;10.13;;;5.60;;
37309;SDS011;23195;47.744;7.358;2024-01-30T17:09:05;7.13;;;5.37;;
37309;SDS011;23195;47.744;7.358;2024-01-30T17:11:30;9.73;;;6.23;;
37309;SDS011;23195;47.744;7.358;2024-01-30T17:13:56;8.47;;;5.90;;
37309;SDS011;23195;47.744;7.358;2024-01-30T17:16:22;10.40;;;6.27;;
37309;SDS011;23195;47.744;7.358;2024-01-30T17:18:48;10.60;;;5.60;;
37309;SDS011;23195;47.744;7.358;2024-01-30T17:21:20;8.07;;;5.80;;
37309;SDS011;23195;47.744;7.358;2024-01-30T17:23:46;8.30;;;6.13;;
37309;SDS011;23195;47.744;7.358;2024-01-30T17:26:12;13.80;;;6.20;;
37309;SDS011;23195;47.744;7.358;2024-01-30T17:28:46;10.03;;;6.03;;
37309;SDS011;23195;47.744;7.358;2024-01-30T17:31:11;9.23;;;6.23;;
37309;SDS011;23195;47.744;7.358;2024-01-30T17:33:37;8.67;;;6.70;;
37309;SDS011;23195;47.744;7.358;2024-01-30T17:36:06;11.40;;;6.20;;
37309;SDS011;23195;47.744;7.358;2024-01-30T17:38:32;10.93;;;6.20;;
37309;SDS011;23195;47.744;7.358;2024-01-30T17:40:58;9.67;;;6.53;;
37309;SDS011;23195;47.744;7.358;2024-01-30T17:43:25;10.87;;;6.40;;
37309;SDS011;23195;47.744;7.358;2024-01-30T17:45:50;11.47;;;6.40;;
37309;SDS011;23195;47.744;7.358;2024-01-30T17:48:16;9.33;;;6.40;;
37309;SDS011;23195;47.744;7.358;2024-01-30T17:50:43;7.97;;;6.13;;
37309;SDS011;23195;47.744;7.358;2024-01-30T17:53:09;9.60;;;6.00;;
37309;SDS011;23195;47.744;7.358;2024-01-30T17:55:34;8.67;;;6.50;;
37309;SDS011;23195;47.744;7.358;2024-01-30T17:58:00;10.07;;;6.53;;
37309;SDS011;23195;47.744;7.358;2024-01-30T18:00:28;7.83;;;5.83;;
37309;SDS011;23195;47.744;7.358;2024-01-30T18:02:56;9.47;;;6.10;;
37309;SDS011;23195;47.744;7.358;2024-01-30T18:05:24;8.63;;;5.70;;
37309;SDS011;23195;47.744;7.358;2024-01-30T18:07:50;9.40;;;6.00;;
37309;SDS011;23195;47.744;7.358;2024-01-30T18:10:16;8.17;;;5.87;;
37309;SDS011;23195;47.744;7.358;2024-01-30T18:12:47;9.80;;;6.70;;
37309;SDS011;23195;47.744;7.358;2024-01-30T18:15:13;10.87;;;6.60;;
37309;SDS011;23195;47.744;7.358;2024-01-30T18:17:39;14.23;;;7.10;;
37309;SDS011;23195;47.744;7.358;2024-01-30T18:20:05;14.33;;;7.07;;
37309;SDS011;23195;47.744;7.358;2024-01-30T18:22:31;10.63;;;6.20;;
37309;SDS011;23195;47.744;7.358;2024-01-30T18:25:00;9.37;;;6.13;;
37309;SDS011;23195;47.744;7.358;2024-01-30T18:27:26;12.63;;;6.67;;
37309;SDS011;23195;47.744;7.358;2024-01-30T18:29:52;10.63;;;7.00;;
37309;SDS011;23195;47.744;7.358;2024-01-30T18:32:18;10.83;;;6.40;;
37309;SDS011;23195;47.744;7.358;2024-01-30T18:34:43;10.47;;;6.73;;
37309;SDS011;23195;47.744;7.358;2024-01-30T18:37:09;10.00;;;6.50;;
37309;SDS011;23195;47.744;7.358;2024-01-30T18:39:35;11.37;;;6.63;;
37309;SDS011;23195;47.744;7.358;2024-01-30T18:42:05;9.77;;;6.37;;
37309;SDS011;23195;47.744;7.358;2024-01-30T18:44:32;11.13;;;5.73;;
37309;SDS011;23195;47.744;7.358;2024-01-30T18:46:58;11.47;;;6.17;;
37309;SDS011;23195;47.744;7.358;2024-01-30T18:49:28;10.00;;;6.07;;
37309;SDS011;23195;47.744;7.358;2024-01-30T18:51:53;8.90;;;5.60;;
37309;SDS011;23195;47.744;7.358;2024-01-30T18:54:23;7.53;;;6.10;;
37309;SDS011;23195;47.744;7.358;2024-01-30T18:56:49;7.53;;;5.70;;
37309;SDS011;23195;47.744;7.358;2024-01-30T18:59:15;11.33;;;6.27;;
37309;SDS011;23195;47.744;7.358;2024-01-30T19:02:04;9.33;;;5.57;;
37309;SDS011;23195;47.744;7.358;2024-01-30T19:04:32;8.77;;;6.17;;
37309;SDS011;23195;47.744;7.358;2024-01-30T19:06:58;14.23;;;7.30;;
37309;SDS011;23195;47.744;7.358;2024-01-30T19:09:23;11.03;;;6.87;;
37309;SDS011;23195;47.744;7.358;2024-01-30T19:11:51;9.73;;;7.13;;
37309;SDS011;23195;47.744;7.358;2024-01-30T19:14:17;10.10;;;6.60;;
37309;SDS011;23195;47.744;7.358;2024-01-30T19:16:43;9.90;;;6.83;;
37309;SDS011;23195;47.744;7.358;2024-01-30T19:19:09;13.13;;;7.47;;
37309;SDS011;23195;47.744;7.358;2024-01-30T19:21:35;10.90;;;7.53;;
37309;SDS011;23195;47.744;7.358;2024-01-30T19:24:01;11.30;;;7.47;;
37309;SDS011;23195;47.744;7.358;2024-01-30T19:26:27;11.03;;;8.00;;
37309;SDS011;23195;47.744;7.358;2024-01-30T19:28:53;12.30;;;7.83;;
37309;SDS011;23195;47.744;7.358;2024-01-30T19:31:24;11.70;;;7.83;;
37309;SDS011;23195;47.744;7.358;2024-01-30T19:33:50;12.87;;;8.40;;
37309;SDS011;23195;47.744;7.358;2024-01-30T19:36:16;13.87;;;8.90;;
37309;SDS011;23195;47.744;7.358;2024-01-30T19:38:42;16.20;;;10.00;;
37309;SDS011;23195;47.744;7.358;2024-01-30T19:41:12;18.63;;;10.70;;
37309;SDS011;23195;47.744;7.358;2024-01-30T19:43:38;20.53;;;11.67;;
37309;SDS011;23195;47.744;7.358;2024-01-30T19:46:07;17.43;;;10.43;;
37309;SDS011;23195;47.744;7.358;2024-01-30T19:48:34;15.97;;;10.10;;
37309;SDS011;23195;47.744;7.358;2024-01-30T19:51:00;17.07;;;10.87;;
37309;SDS011;23195;47.744;7.358;2024-01-30T19:53:25;16.50;;;10.80;;
37309;SDS011;23195;47.744;7.358;2024-01-30T19:55:51;18.00;;;10.40;;
37309;SDS011;23195;47.744;7.358;2024-01-30T19:58:17;15.33;;;10.37;;
37309;SDS011;23195;47.744;7.358;2024-01-30T20:00:44;16.73;;;10.80;;
37309;SDS011;23195;47.744;7.358;2024-01-30T20:03:11;16.67;;;11.00;;
37309;SDS011;23195;47.744;7.358;2024-01-30T20:05:37;17.37;;;9.33;;
37309;SDS011;23195;47.744;7.358;2024-01-30T20:08:03;17.43;;;9.67;;
37309;SDS011;23195;47.744;7.358;2024-01-30T20:10:29;17.70;;;10.23;;
37309;SDS011;23195;47.744;7.358;2024-01-30T20:12:55;16.07;;;10.67;;
37309;SDS011;23195;47.744;7.358;2024-01-30T20:15:25;15.20;;;9.50;;
37309;SDS011;23195;47.744;7.358;2024-01-30T20:17:50;16.07;;;9.90;;
37309;SDS011;23195;47.744;7.358;2024-01-30T20:20:16;14.53;;;9.63;;
37309;SDS011;23195;47.744;7.358;2024-01-30T20:22:43;16.53;;;9.37;;
37309;SDS011;23195;47.744;7.358;2024-01-30T20:25:10;15.57;;;8.90;;
37309;SDS011;23195;47.744;7.358;2024-01-30T20:27:38;11.40;;;8.20;;
37309;SDS011;23195;47.744;7.358;2024-01-30T20:30:04;15.07;;;9.23;;
37309;SDS011;23195;47.744;7.358;2024-01-30T20:32:38;17.00;;;9.20;;
37309;SDS011;23195;47.744;7.358;2024-01-30T20:35:04;13.33;;;8.47;;
37309;SDS011;23195;47.744;7.358;2024-01-30T20:37:36;14.03;;;8.13;;
37309;SDS011;23195;47.744;7.358;2024-01-30T20:40:03;13.70;;;7.83;;
37309;SDS011;23195;47.744;7.358;2024-01-30T20:42:32;10.50;;;7.13;;
37309;SDS011;23195;47.744;7.358;2024-01-30T20:44:57;11.23;;;7.63;;
37309;SDS011;23195;47.744;7.358;2024-01-30T20:47:23;14.33;;;7.50;;
37309;SDS011;23195;47.744;7.358;2024-01-30T20:49:52;13.40;;;7.83;;
37309;SDS011;23195;47.744;7.358;2024-01-30T20:54:54;11.37;;;7.47;;
37309;SDS011;23195;47.744;7.358;2024-01-30T20:57:19;18.57;;;10.17;;
37309;SDS011;23195;47.744;7.358;2024-01-30T20:59:45;15.93;;;8.00;;
37309;SDS011;23195;47.744;7.358;2024-01-30T21:02:11;11.20;;;7.67;;
37309;SDS011;23195;47.744;7.358;2024-01-30T21:04:37;12.97;;;8.33;;
37309;SDS011;23195;47.744;7.358;2024-01-30T21:07:05;14.93;;;8.60;;
37309;SDS011;23195;47.744;7.358;2024-01-30T21:09:31;16.17;;;8.63;;
37309;SDS011;23195;47.744;7.358;2024-01-30T21:12:03;16.83;;;8.10;;
37309;SDS011;23195;47.744;7.358;2024-01-30T21:15:01;11.77;;;8.40;;
37309;SDS011;23195;47.744;7.358;2024-01-30T21:17:32;13.23;;;7.60;;
37309;SDS011;23195;47.744;7.358;2024-01-30T21:20:06;14.50;;;7.70;;
37309;SDS011;23195;47.744;7.358;2024-01-30T21:22:33;12.20;;;8.03;;
37309;SDS011;23195;47.744;7.358;2024-01-30T21:24:59;14.17;;;7.53;;
37309;SDS011;23195;47.744;7.358;2024-01-30T21:27:24;13.03;;;8.13;;
37309;SDS011;23195;47.744;7.358;2024-01-30T21:29:51;15.83;;;8.87;;
37309;SDS011;23195;47.744;7.358;2024-01-30T21:32:17;15.87;;;9.37;;
37309;SDS011;23195;47.744;7.358;2024-01-30T21:34:45;14.97;;;9.30;;
37309;SDS011;23195;47.744;7.358;2024-01-30T21:37:15;12.77;;;7.23;;
37309;SDS011;23195;47.744;7.358;2024-01-30T21:39:41;13.77;;;7.63;;
37309;SDS011;23195;47.744;7.358;2024-01-30T21:42:07;10.90;;;6.40;;
37309;SDS011;23195;47.744;7.358;2024-01-30T21:44:33;10.83;;;7.10;;
37309;SDS011;23195;47.744;7.358;2024-01-30T21:46:58;10.37;;;6.47;;
37309;SDS011;23195;47.744;7.358;2024-01-30T21:49:25;11.60;;;7.20;;
37309;SDS011;23195;47.744;7.358;2024-01-30T21:51:50;12.60;;;6.63;;
37309;SDS011;23195;47.744;7.358;2024-01-30T21:54:24;13.47;;;7.07;;
37309;SDS011;23195;47.744;7.358;2024-01-30T21:56:53;12.27;;;6.97;;
37309;SDS011;23195;47.744;7.358;2024-01-30T21:59:22;10.60;;;7.20;;
37309;SDS011;23195;47.744;7.358;2024-01-30T22:01:48;9.33;;;6.67;;
37309;SDS011;23195;47.744;7.358;2024-01-30T22:04:14;11.90;;;7.30;;
37309;SDS011;23195;47.744;7.358;2024-01-30T22:06:43;10.87;;;6.17;;
37309;SDS011;23195;47.744;7.358;2024-01-30T22:09:11;12.43;;;7.20;;
37309;SDS011;23195;47.744;7.358;2024-01-30T22:11:37;9.97;;;6.43;;
37309;SDS011;23195;47.744;7.358;2024-01-30T22:14:03;11.10;;;6.43;;
37309;SDS011;23195;47.744;7.358;2024-01-30T22:16:29;15.57;;;6.63;;
37309;SDS011;23195;47.744;7.358;2024-01-30T22:18:54;9.60;;;6.70;;
37309;SDS011;23195;47.744;7.358;2024-01-30T22:21:22;11.70;;;6.63;;
37309;SDS011;23195;47.744;7.358;2024-01-30T22:23:48;11.07;;;6.63;;
37309;SDS011;23195;47.744;7.358;2024-01-30T22:26:21;11.50;;;7.10;;
37309;SDS011;23195;47.744;7.358;2024-01-30T22:31:51;9.90;;;6.07;;
37309;SDS011;23195;47.744;7.358;2024-01-30T22:34:19;9.57;;;6.20;;
37309;SDS011;23195;47.744;7.358;2024-01-30T22:36:45;10.37;;;6.30;;
37309;SDS011;23195;47.744;7.358;2024-01-30T22:39:11;10.57;;;6.23;;
37309;SDS011;23195;47.744;7.358;2024-01-30T22:41:37;12.87;;;6.27;;
37309;SDS011;23195;47.744;7.358;2024-01-30T22:44:06;9.93;;;6.10;;
37309;SDS011;23195;47.744;7.358;2024-01-30T22:46:32;11.33;;;6.40;;
37309;SDS011;23195;47.744;7.358;2024-01-30T22:48:57;11.33;;;6.43;;
37309;SDS011;23195;47.744;7.358;2024-01-30T22:51:23;10.43;;;6.40;;
37309;SDS011;23195;47.744;7.358;2024-01-30T22:53:50;14.27;;;6.37;;
37309;SDS011;23195;47.744;7.358;2024-01-30T22:56:16;9.30;;;7.17;;